Terminal Aerodrome Forecast
Issued by NWS

Home | Current Version | Previous Version | Text Only | Print | Product List | Glossary On
Versions: 1 2 3 4 5 6 7 8 9 10 11 12 13
000
FTUS42 TJSJ 301125
TAFJPS
TAF
TJPS 301125Z 3012/3112 VRB05KT P6SM FEW025
     FM301300 11010G16KT P6SM VCSH FEW025
     FM301600 14015G20KT P6SM VCSH FEW025
     FM302300 07006KT P6SM SCT030=

USA.gov is the U.S. government's official web portal to all federal, state and local government web resources and services.